Flight Track Log - Related Links

Times and Time Zones

All times are in EDT time to prevent confusion due to time zone crossing. See the DAL1114 flight status page for this flight to view local times or setup timezone preferences in your user account.

Time Position Orientation Groundspeed Altitude Reporting Facility
EDT Latitude Longitude Course Direction KTS MPH feet Rate Location/Type
Mon 07:41:32 PM 40.8172 -112.0011 78° East 189 217 5,200  Level Salt Lake Center
Mon 07:42:27 PM 40.8706 -112.0086 354° North 222 255 6,100 1,485 Climbing Salt Lake Center
Mon 07:43:13 PM 40.9242 -112.0144 355° North 260 299 7,700 2,262 Climbing Salt Lake Center
Mon 07:43:28 PM 40.9453 -112.0172 354° North 271 312 8,400 2,754 Climbing Salt Lake Center
Mon 07:44:00 PM 41.1333 -111.9062 90° East  Level FlightAware Approximate
Mon 07:44:14 PM 41.0019 -112.0203 358° North 275 316 10,500  Level Salt Lake Center
Mon 07:44:35 PM 41.0347 -112.0122 11° North 282 325 11,500 2,129 Climbing Salt Lake Center
Mon 07:45:00 PM 41.1048 -111.7429 124° Southeast  Level FlightAware Approximate
Mon 07:45:16 PM 41.0650 -111.9583 53° Northeast 313 360 12,700  Level Salt Lake Center
Mon 07:46:00 PM 41.0167 -111.6164 78° East  Level FlightAware Approximate
Mon 07:46:17 PM 41.0886 -111.8347 76° East 335 386 14,800  Level Salt Lake Center
Mon 07:47:19 PM 41.1167 -111.6919 75° East 400 460 15,200 927 Climbing Salt Lake Center
Mon 07:48:20 PM 41.1469 -111.5328 76° East 441 507 16,700 1,366 Climbing Salt Lake Center
Mon 07:49:22 PM 41.1778 -111.3661 76° East 465 535 18,000 1,463 Climbing Salt Lake Center
Mon 07:50:23 PM 41.2092 -111.1914 77° East 485 558 19,700 1,659 Climbing Salt Lake Center
Mon 07:51:25 PM 41.2417 -111.0139 76° East 494 568 21,400 1,512 Climbing Salt Lake Center
Mon 07:52:26 PM 41.2814 -110.8003 76° East 512 589 22,800 1,366 Climbing Salt Lake Center
Mon 07:53:28 PM 41.3133 -110.6242 76° East 515 593 24,200 1,171 Climbing Salt Lake Center
Mon 07:54:29 PM 41.3500 -110.4122 77° East 527 606 25,200 878 Climbing Salt Lake Center
Mon 07:55:31 PM 41.3831 -110.2308 76° East 527 606 26,000 968 Climbing Salt Lake Center
Mon 07:56:33 PM 41.4156 -110.0450 77° East 536 617 27,200 1,122 Climbing Salt Lake Center
Mon 07:57:34 PM 41.4528 -109.8317 77° East 531 611 28,300 1,024 Climbing Salt Lake Center
Mon 07:58:36 PM 41.4847 -109.6469 77° East 533 613 29,300 927 Climbing Salt Lake Center
Mon 07:59:37 PM 41.5217 -109.4281 77° East 539 620 30,200 1,024 Climbing Salt Lake Center
Mon 08:00:39 PM 41.5536 -109.2400 77° East 537 618 31,400 927 Climbing Salt Lake Center
Mon 08:01:40 PM 41.5856 -109.0494 77° East 537 618 32,100 878 Climbing Salt Lake Center
Mon 08:02:42 PM 41.6106 -108.8631 80° East 530 610 33,200 976 Climbing Salt Lake Center
Mon 08:03:43 PM 41.6378 -108.6483 80° East 524 603 34,100 829 Climbing Salt Lake Center
Mon 08:04:45 PM 41.6606 -108.4647 81° East 524 603 34,900 439 Climbing Salt Lake Center
Mon 08:05:46 PM 41.6872 -108.2550 80° East 515 593 35,000 49 Climbing Salt Lake Center
Mon 08:06:48 PM 41.7097 -108.0731 81° East 517 595 35,000  Level Salt Lake Center
Mon 08:07:19 PM 41.7222 -107.9806 80° East 517 595 35,000  Level Denver Center
Mon 08:08:21 PM 41.7469 -107.7661 81° East 522 601 35,000  Level Denver Center
Mon 08:09:22 PM 41.7689 -107.5853 81° East 516 594 35,000  Level Denver Center
Mon 08:10:36 PM 41.7944 -107.3728 81° East 517 595 35,000  Level Denver Center
Mon 08:11:38 PM 41.8186 -107.1622 81° East 512 589 35,000  Level Denver Center
Mon 08:12:40 PM 41.8422 -106.9528 81° East 509 586 35,000  Level Denver Center
Mon 08:13:42 PM 41.8619 -106.7717 82° East 513 590 35,000  Level Denver Center
Mon 08:14:43 PM 41.8861 -106.5606 81° East 513 590 35,000  Level Denver Center
Mon 08:15:45 PM 41.9053 -106.3850 82° East 518 596 35,000  Level Denver Center
Mon 08:16:47 PM 41.9253 -106.1750 83° East 509 586 35,000  Level Denver Center
Mon 08:17:49 PM 41.9458 -106.0031 81° East 493 567 35,000  Level Denver Center
Mon 08:18:50 PM 41.9667 -105.7964 82° East 500 575 35,000  Level Denver Center
Mon 08:19:52 PM 41.9856 -105.6203 82° East 498 573 35,000  Level Denver Center
Mon 08:20:54 PM 42.0053 -105.4178 82° East 492 566 35,000 48 Level Denver Center
Mon 08:21:56 PM 42.0217 -105.2472 83° East 484 557 35,100 -48 Climbing Denver Center
Mon 08:22:58 PM 42.0411 -105.0467 82° East 484 557 34,900 -49 Descending Denver Center
Mon 08:23:59 PM 42.0578 -104.8728 83° East 489 563 35,000 49 Climbing Denver Center
Mon 08:25:01 PM 42.0728 -104.7006 83° East 488 562 35,000  Level Denver Center
Mon 08:26:03 PM 42.0919 -104.4964 83° East 494 568 35,000 48 Level Denver Center
Mon 08:27:05 PM 42.1075 -104.3189 83° East 501 577 35,100  Climbing Denver Center
Mon 08:28:07 PM 42.1250 -104.1131 83° East 498 573 35,000  Descending Denver Center
Mon 08:29:09 PM 42.1417 -103.9347 83° East 503 579 35,100  Climbing Denver Center
Mon 08:30:10 PM 42.1589 -103.7258 84° East 503 579 35,000 -49 Descending Denver Center
Mon 08:31:12 PM 42.1744 -103.5475 83° East 502 578 35,000  Level Denver Center
Mon 08:32:14 PM 42.1914 -103.3372 84° East 505 581 35,000  Level Denver Center
Mon 08:33:16 PM 42.2053 -103.1533 84° East 516 594 35,000  Level Denver Center
Mon 08:34:18 PM 42.2106 -102.9358 88° East 523 602 35,000  Level Denver Center
Mon 08:35:20 PM 42.2064 -102.7522 92° East 516 594 35,000  Level Denver Center
Mon 08:36:21 PM 42.2044 -102.5372 91° East 515 593 35,000  Level Denver Center
Mon 08:37:23 PM 42.2025 -102.3536 91° East 512 589 35,000  Level Denver Center
Mon 08:38:25 PM 42.1975 -102.1589 92° East 508 585 35,000  Level Denver Center
Mon 08:39:27 PM 42.1936 -101.9469 91° East 506 582 35,000  Level Denver Center
Mon 08:40:29 PM 42.1914 -101.7650 91° East 506 582 35,000  Level Denver Center
Mon 08:41:31 PM 42.1867 -101.5839 92° East 505 581 35,000  Level Denver Center
Mon 08:42:32 PM 42.1814 -101.3714 92° East 507 583 35,000  Level Denver Center
Mon 08:43:34 PM 42.1769 -101.1878 92° East 511 588 35,000 48 Level Denver Center
Mon 08:44:36 PM 42.1708 -100.9747 92° East 510 587 35,100  Climbing Denver Center
Mon 08:45:38 PM 42.1667 -100.7908 92° East 511 588 35,000 -48 Descending Denver Center
Mon 08:46:40 PM 42.1589 -100.5800 93° East 506 582 35,000  Level Denver Center
Mon 08:47:41 PM 42.1536 -100.3992 92° East 505 581 35,000  Level Denver Center
Mon 08:48:24 PM 42.1492 -100.2681 93° East 505 581 35,000  Level Minneapolis Center
Mon 08:48:43 PM 42.1472 -100.2181 93° East 504 580 35,000  Level Denver Center
Mon 08:49:26 PM 42.1425 -100.0794 93° East 503 579 35,000  Level Minneapolis Center
Mon 08:49:45 PM 42.1400 -100.0069 93° East 505 581 35,000  Level Denver Center
Mon 08:50:47 PM 42.1336 -99.8286 93° East 500 575 35,000  Level Denver Center
Mon 08:51:48 PM 42.1256 -99.6297 93° East 497 572 35,000  Level Denver Center
Mon 08:52:50 PM 42.1175 -99.4422 93° East 497 572 35,000  Level Denver Center
Mon 08:53:52 PM 42.1100 -99.2553 93° East 499 574 35,000  Level Denver Center
Mon 08:54:36 PM 42.1044 -99.1061 93° East 502 578 35,000  Level Minneapolis Center
Mon 08:55:38 PM 42.0956 -98.9194 94° East 498 573 35,000  Level Minneapolis Center
Mon 08:56:40 PM 42.0872 -98.7311 93° East 501 577 35,000  Level Minneapolis Center
Mon 08:57:42 PM 42.0789 -98.5439 93° East 500 575 35,000  Level Minneapolis Center
Mon 08:58:44 PM 42.0689 -98.3569 94° East 499 574 35,000  Level Minneapolis Center
Mon 08:59:46 PM 42.0583 -98.1442 94° East 498 573 35,000  Level Minneapolis Center
Mon 09:00:48 PM 42.0478 -97.9608 94° East 495 570 35,000  Level Minneapolis Center
Mon 09:01:50 PM 42.0389 -97.7764 94° East 494 568 35,000  Level Minneapolis Center
Mon 09:02:53 PM 42.0278 -97.5922 95° East 494 568 35,000  Level Minneapolis Center
Mon 09:03:55 PM 42.0169 -97.4083 94° East 494 568 35,000  Level Minneapolis Center
Mon 09:04:57 PM 42.0064 -97.2250 94° East 493 567 35,000  Level Minneapolis Center
Mon 09:05:59 PM 41.9925 -97.0031 95° East 493 567 35,000  Level Minneapolis Center
Mon 09:07:01 PM 41.9803 -96.8183 95° East 495 570 35,000  Level Minneapolis Center
Mon 09:08:03 PM 41.9692 -96.6328 95° East 498 573 35,000  Level Minneapolis Center
Mon 09:09:05 PM 41.9572 -96.4492 95° East 494 568 35,000  Level Minneapolis Center
Mon 09:10:07 PM 41.9439 -96.2656 96° East 492 566 35,000  Level Minneapolis Center
Mon 09:11:09 PM 41.9311 -96.0828 95° East 491 565 35,000  Level Minneapolis Center
Mon 09:12:11 PM 41.9175 -95.8975 96° East 494 568 35,000  Level Minneapolis Center
Mon 09:13:13 PM 41.9008 -95.6753 96° East 496 571 35,000  Level Minneapolis Center
Mon 09:14:15 PM 41.8875 -95.4925 96° East 492 566 35,000  Level Minneapolis Center
Mon 09:15:17 PM 41.8728 -95.3092 96° East 493 567 35,000  Level Minneapolis Center
Mon 09:16:19 PM 41.8586 -95.1297 96° East 486 559 35,000  Level Minneapolis Center
Mon 09:17:22 PM 41.8444 -94.9494 96° East 485 558 35,000  Level Minneapolis Center
Mon 09:18:24 PM 41.8286 -94.7708 97° East 483 556 35,000  Level Minneapolis Center
Mon 09:19:26 PM 41.8142 -94.5919 96° East 483 556 35,000  Level Minneapolis Center
Mon 09:20:28 PM 41.7964 -94.3806 96° East 477 549 35,000  Level Minneapolis Center
Mon 09:21:30 PM 41.7814 -94.2042 96° East 475 547 35,000  Level Minneapolis Center
Mon 09:22:32 PM 41.7653 -94.0275 97° East 478 550 35,000  Level Minneapolis Center
Mon 09:23:33 PM 41.7533 -93.8872 96° East 475 547 35,000  Level Minneapolis Center
Mon 09:24:35 PM 41.7328 -93.6608 97° East 475 547 35,000  Level Minneapolis Center
Mon 09:25:37 PM 41.7164 -93.4844 97° East 480 552 35,000  Level Minneapolis Center
Mon 09:26:39 PM 41.7000 -93.3075 97° East 482 555 35,000  Level Minneapolis Center
Mon 09:27:41 PM 41.6828 -93.1297 97° East 483 556 35,000  Level Minneapolis Center
Mon 09:28:42 PM 41.6656 -92.9553 97° East 480 552 35,000  Level Minneapolis Center
Mon 09:29:44 PM 41.6486 -92.7778 97° East 481 554 35,000  Level Minneapolis Center
Mon 09:30:48 PM 41.6275 -92.5656 98° East 484 557 35,000  Level Chicago Center
Mon 09:31:50 PM 41.6086 -92.3875 98° East 489 563 35,000  Level Chicago Center
Mon 09:32:52 PM 41.5894 -92.2092 98° East 492 566 35,000  Level Chicago Center
Mon 09:33:53 PM 41.5708 -92.0289 98° East 495 570 35,000  Level Chicago Center
Mon 09:34:55 PM 41.5478 -91.8128 98° East 496 571 35,000  Level Chicago Center
Mon 09:35:57 PM 41.5281 -91.6325 98° East 497 572 35,000  Level Chicago Center
Mon 09:36:58 PM 41.5083 -91.4536 98° East 496 571 35,000  Level Chicago Center
Mon 09:38:00 PM 41.4889 -91.2878 99° East 489 563 35,000  Level Chicago Center
Mon 09:39:02 PM 41.4650 -91.0750 98° East 485 558 35,000  Level Chicago Center
Mon 09:40:03 PM 41.4447 -90.8981 99° East 483 556 35,000  Level Chicago Center
Mon 09:41:05 PM 41.4231 -90.7169 99° East 492 566 35,000  Level Chicago Center
Mon 09:42:06 PM 41.4003 -90.5369 100° East 493 567 35,000 49 Level Chicago Center
Mon 09:43:08 PM 41.3786 -90.3539 99° East 496 571 35,100  Climbing Chicago Center
Mon 09:44:09 PM 41.3558 -90.1700 99° East 502 578 35,000 -49 Descending Chicago Center
Mon 09:45:11 PM 41.3331 -89.9853 99° East 503 579 35,000  Level Chicago Center
Mon 09:46:13 PM 41.3108 -89.8036 99° East 499 574 35,000  Level Chicago Center
Mon 09:47:14 PM 41.2881 -89.6206 99° East 499 574 35,000  Level Chicago Center
Mon 09:48:16 PM 41.2644 -89.4378 100° East 500 575 35,000  Level Chicago Center
Mon 09:49:17 PM 41.2350 -89.2206 100° East 497 572 35,000  Level Chicago Center
Mon 09:50:19 PM 41.2108 -89.0436 100° East 497 572 35,000  Level Chicago Center
Mon 09:51:20 PM 41.1864 -88.8625 100° East 502 578 35,000  Level Chicago Center
Mon 09:52:22 PM 41.1619 -88.6831 100° East 501 577 35,000  Level Chicago Center
Mon 09:53:23 PM 41.1378 -88.5047 100° East 498 573 35,000  Level Chicago Center
Mon 09:54:24 PM 41.1083 -88.2914 100° East 498 573 35,000  Level Chicago Center
Mon 09:55:26 PM 41.0831 -88.1144 101° East 499 574 35,000  Level Chicago Center
Mon 09:56:27 PM 41.0581 -87.9378 101° East 499 574 35,000  Level Chicago Center
Mon 09:58:00 PM 41.0178 -87.6768 101° East  Level FlightAware Approximate
Mon 09:58:30 PM 41.0075 -87.5831 101° East 497 572 35,000  Level Chicago Center
Mon 09:59:31 PM 40.9808 -87.4044 101° East 499 574 35,000  Level Chicago Center
Mon 10:00:32 PM 40.9475 -87.1936 102° East 495 570 35,000  Level Chicago Center
Mon 10:01:34 PM 40.9208 -87.0142 101° East 499 574 35,000  Level Chicago Center
Mon 10:02:35 PM 40.8928 -86.8344 102° East 501 577 35,000  Level Chicago Center
Mon 10:03:36 PM 40.8644 -86.6525 102° East 501 577 35,000  Level Chicago Center
Mon 10:04:37 PM 40.8372 -86.4742 101° East 500 575 35,000  Level Chicago Center
Mon 10:05:38 PM 40.8081 -86.2956 102° East 499 574 35,000  Level Chicago Center
Mon 10:06:40 PM 40.7797 -86.1164 102° East 502 578 35,000  Level Chicago Center
Mon 10:07:41 PM 40.7511 -85.9403 102° East 495 570 35,000  Level Chicago Center
Mon 10:08:42 PM 40.7217 -85.7628 102° East 498 573 35,000  Level Chicago Center
Mon 10:09:43 PM 40.6856 -85.5478 102° East 501 577 35,000  Level Chicago Center
Mon 10:10:44 PM 40.6583 -85.3806 102° East 498 573 35,000  Level Chicago Center
Mon 10:11:46 PM 40.6267 -85.1978 103° East 507 583 35,000  Level Chicago Center
Mon 10:12:47 PM 40.5983 -85.0217 102° East 494 568 35,000  Level Chicago Center
Mon 10:13:48 PM 40.5664 -84.8397 103° East 503 579 35,000  Level Chicago Center
Mon 10:14:49 PM 40.5372 -84.6653 102° East 475 547 35,000  Level Chicago Center
Mon 10:15:50 PM 40.5022 -84.4819 104° East 506 582 35,000  Level Chicago Center
Mon 10:16:52 PM 40.4719 -84.3089 103° East 497 572 35,000  Level Chicago Center
Mon 10:17:53 PM 40.4400 -84.1342 103° East 495 570 35,000  Level Chicago Center
Mon 10:18:54 PM 40.4028 -83.9236 103° East 496 571 35,000  Level Chicago Center
Mon 10:19:55 PM 40.3714 -83.7500 103° East 493 567 35,000  Level Chicago Center
Mon 10:20:56 PM 40.3389 -83.5769 104° East 492 566 35,000  Level Chicago Center
Mon 10:22:02 PM 40.3039 -83.3808 103° East 488 562 35,000 -47 Level Indianapolis Center
Mon 10:23:03 PM 40.2836 -83.2022 98° East 488 562 34,900  Descending Indianapolis Center
Mon 10:24:04 PM 40.2622 -83.0236 99° East 489 563 35,000 49 Climbing Indianapolis Center
Mon 10:25:05 PM 40.2400 -82.8453 99° East 491 565 35,000  Level Indianapolis Center
Mon 10:26:06 PM 40.2183 -82.6689 99° East 487 560 35,000  Level Indianapolis Center
Mon 10:27:07 PM 40.1964 -82.4919 99° East 487 560 35,000  Level Indianapolis Center
Mon 10:28:08 PM 40.1742 -82.3167 99° East 485 558 35,000  Level Indianapolis Center
Mon 10:29:09 PM 40.1519 -82.1408 99° East 486 559 35,000  Level Indianapolis Center
Mon 10:30:10 PM 40.1292 -81.9650 100° East 486 559 35,000  Level Indianapolis Center
Mon 10:31:11 PM 40.1050 -81.7892 100° East 487 560 35,000  Level Indianapolis Center
Mon 10:32:11 PM 40.0839 -81.6269 100° East 485 558 35,000  Level Indianapolis Center
Mon 10:33:12 PM 40.0606 -81.4525 100° East 486 559 35,000  Level Indianapolis Center
Mon 10:34:13 PM 40.0358 -81.2767 100° East 489 563 35,000 51 Level Indianapolis Center
Mon 10:35:10 PM 40.0139 -81.0981 99° East 483 556 35,100  Climbing Cleveland Center
Mon 10:36:10 PM 39.9894 -80.9244 100° East 483 556 35,000 -50 Descending Cleveland Center
Mon 10:37:10 PM 39.9669 -80.7564 100° East 483 556 35,000  Level Cleveland Center
Mon 10:38:10 PM 39.9422 -80.5858 101° East 483 556 35,000  Level Cleveland Center
Mon 10:39:09 PM 39.9169 -80.4153 101° East 483 556 35,000  Level Cleveland Center
Mon 10:40:10 PM 39.8936 -80.2447 100° East 483 556 35,000  Level Cleveland Center
Mon 10:41:10 PM 39.8681 -80.0744 101° East 478 550 35,000  Level Cleveland Center
Mon 10:42:10 PM 39.8358 -79.9100 104° East 478 550 35,000 -437 Level Cleveland Center
Mon 10:43:41 PM 39.7881 -79.6853 105° East 455 524 33,900 -908 Descending Washington Center
Mon 10:44:42 PM 39.7539 -79.5242 105° East 455 524 32,700 -2,118 Descending Washington Center
Mon 10:45:40 PM 39.7194 -79.3603 105° East 461 531 29,700 -2,924 Descending Washington Center
Mon 10:46:41 PM 39.6867 -79.2022 105° East 461 531 26,900 -2,311 Descending Washington Center
Mon 10:47:42 PM 39.6536 -79.0497 106° East 456 525 25,000 -1,008 Descending Washington Center
Mon 10:48:40 PM 39.6164 -78.8889 107° East 456 525 24,900 -500 Descending Washington Center
Mon 10:49:42 PM 39.5833 -78.7311 105° East 462 532 24,000 -1,230 Descending Washington Center
Mon 10:50:42 PM 39.5514 -78.5872 106° East 439 505 22,400 -1,966 Descending Washington Center
Mon 10:51:41 PM 39.5217 -78.4461 105° East 418 481 20,100 -2,250 Descending Washington Center
Mon 10:52:42 PM 39.4892 -78.3131 108° East 405 466 17,900 -2,132 Descending Washington Center
Mon 10:53:42 PM 39.4608 -78.1828 106° East 385 443 15,800 -1,475 Descending Washington Center
Mon 10:54:40 PM 39.4511 -78.0508 95° East 370 426 15,000 -407 Descending Washington Center
Mon 10:55:40 PM 39.4475 -77.9161 92° East 370 426 15,000  Level Washington Center
Mon 10:56:41 PM 39.4478 -77.7847 90° East 370 426 15,000 -450 Level Washington Center
Mon 10:57:40 PM 39.4481 -77.6503 90° East 365 420 14,100 -1,361 Descending Washington Center
Mon 10:58:40 PM 39.4461 -77.5211 91° East 365 420 12,300 -1,426 Descending Washington Center
Mon 10:59:42 PM 39.4436 -77.4056 92° East 352 405 11,200 -1,212 Descending Washington Center
Mon 11:00:19 PM 39.4333 -77.3333 100° East 297 342 10,300 -1,608 Descending Potomac TRACON
Mon 11:01:19 PM 39.4167 -77.2167 100° East 289 333 8,600 -1,600 Descending Potomac TRACON
Mon 11:02:19 PM 39.3833 -77.1333 117° Southeast 280 322 7,100 -1,400 Descending Potomac TRACON
Mon 11:03:19 PM 39.3333 -77.0667 134° Southeast 262 302 5,800 -1,333 Descending Potomac TRACON
Mon 11:04:25 PM 39.2667 -77.0000 142° Southeast 242 278 4,300 -1,000 Descending Potomac TRACON
Mon 11:05:25 PM 39.2333 -76.9500 131° Southeast 205 236 3,700 -632 Descending Potomac TRACON
Mon 11:06:19 PM 39.2000 -76.9167 142° Southeast 177 204 3,100 -882 Descending Potomac TRACON
Mon 11:07:07 PM 39.1833 -76.8667 113° Southeast 157 181 2,200 -1,125 Descending Potomac TRACON

Login

Don't have an account? Register now (free) for customized features, flight alerts, and more!